METAR Data

Data at: 2229 UTC 26 Feb 2020

METAR for:KPSM (Portsmouth Intl, NH, US)
Text:KPSM 262156Z 07008KT 7SM OVC005 05/04 A2998 RMK AO2A SLP156 T00510036
Temperature: 5.1°C ( 41°F)
Dewpoint: 3.6°C ( 38°F) [RH = 90%]
Pressure (altimeter):29.98 inches Hg (1015.3 mb) [Sea level pressure: 1015.6 mb]
Winds:from the ENE (70 degrees) at 9 MPH (8 knots; 4.1 m/s)
Visibility: 7 sm ( 11 km)
Ceiling:500 feet AGL
Clouds: overcast cloud deck at 500 feet AGL